createdAt,value
2023-04-27T00:00:39.164Z,61.42
2023-04-27T00:03:06.299Z,61.87
2023-04-27T00:05:39.189Z,62.20
2023-04-27T00:08:07.003Z,62.70
2023-04-27T00:10:33.491Z,62.90
2023-04-27T00:13:00.377Z,63.19
2023-04-27T00:15:27.067Z,63.24
2023-04-27T00:17:53.576Z,63.75
2023-04-27T00:20:20.742Z,63.46
2023-04-27T00:22:47.249Z,63.82
2023-04-27T00:25:13.637Z,64.14
2023-04-27T00:27:40.025Z,64.58
2023-04-27T00:30:06.892Z,64.91
2023-04-27T00:32:33.358Z,64.57
2023-04-27T00:34:59.691Z,64.73
2023-04-27T00:37:26.488Z,64.58
2023-04-27T00:39:53.033Z,64.54
2023-04-27T00:42:19.701Z,64.73
2023-04-27T00:44:47.090Z,64.62
2023-04-27T00:47:14.089Z,64.17
2023-04-27T00:49:40.996Z,64.91
2023-04-27T00:52:07.747Z,64.90
2023-04-27T00:54:34.368Z,64.75
2023-04-27T00:57:00.793Z,64.75
2023-04-27T00:59:27.238Z,64.92
2023-04-27T01:01:55.029Z,65.00
2023-04-27T01:04:21.890Z,65.13
2023-04-27T01:06:48.418Z,64.79
2023-04-27T01:09:16.439Z,65.29
2023-04-27T01:11:42.829Z,66.06
2023-04-27T01:14:09.456Z,65.91
2023-04-27T01:16:35.924Z,65.72
2023-04-27T01:19:02.461Z,65.58
2023-04-27T01:21:28.993Z,66.11
2023-04-27T01:23:55.427Z,66.83
2023-04-27T01:26:22.454Z,66.68
2023-04-27T01:28:49.071Z,67.02
2023-04-27T01:31:15.575Z,67.22
2023-04-27T01:33:42.365Z,66.88
2023-04-27T01:36:09.335Z,67.06
2023-04-27T01:38:35.966Z,66.40
2023-04-27T01:41:04.735Z,66.33
2023-04-27T01:43:32.241Z,65.99
2023-04-27T01:46:12.431Z,66.05
2023-04-27T01:48:39.980Z,65.70
2023-04-27T01:51:06.980Z,65.63
2023-04-27T01:53:33.667Z,65.52
2023-04-27T01:56:00.828Z,65.69
2023-04-27T01:58:27.792Z,66.01
2023-04-27T02:00:54.285Z,66.01
2023-04-27T02:03:20.898Z,65.87
2023-04-27T02:05:47.958Z,65.54
2023-04-27T02:08:14.631Z,65.23
2023-04-27T02:10:41.199Z,65.38
2023-04-27T02:13:07.680Z,65.19
2023-04-27T02:15:35.295Z,65.24
2023-04-27T02:18:03.336Z,65.16
2023-04-27T02:20:33.239Z,65.10
2023-04-27T02:22:59.946Z,65.03
2023-04-27T02:25:26.800Z,65.25
2023-04-27T02:27:53.836Z,65.83
2023-04-27T02:30:21.281Z,65.98
2023-04-27T02:32:48.222Z,65.93
2023-04-27T02:35:14.788Z,65.77
2023-04-27T02:37:41.611Z,66.06
2023-04-27T02:40:09.225Z,65.67
2023-04-27T02:42:35.746Z,65.58
2023-04-27T02:45:02.215Z,65.80
2023-04-27T02:47:28.635Z,66.43
2023-04-27T02:49:55.182Z,66.60
2023-04-27T02:52:21.528Z,66.71
2023-04-27T02:54:47.876Z,67.08
2023-04-27T02:57:14.365Z,67.08
2023-04-27T02:59:40.796Z,66.93
2023-04-27T03:02:07.696Z,66.72
2023-04-27T03:04:34.086Z,66.73
2023-04-27T03:07:00.479Z,67.06
2023-04-27T03:09:27.018Z,67.00
2023-04-27T03:11:53.400Z,67.03
2023-04-27T03:14:19.750Z,66.83
2023-04-27T03:16:46.343Z,66.55
2023-04-27T03:19:12.972Z,66.99
2023-04-27T03:21:39.431Z,66.95
2023-04-27T03:24:06.124Z,66.92
2023-04-27T03:26:32.490Z,67.09
2023-04-27T03:28:58.963Z,67.42
2023-04-27T03:31:25.494Z,67.33
2023-04-27T03:33:51.874Z,67.49
2023-04-27T03:36:18.250Z,67.47
2023-04-27T03:38:44.737Z,67.20
2023-04-27T03:41:11.592Z,67.33
2023-04-27T03:43:37.947Z,67.59
2023-04-27T03:46:04.550Z,67.77
2023-04-27T03:48:30.995Z,68.01
2023-04-27T03:50:57.381Z,68.21
2023-04-27T03:53:23.827Z,67.77
2023-04-27T03:55:50.190Z,68.41
2023-04-27T03:58:17.459Z,68.54
2023-04-27T04:00:44.071Z,68.70
2023-04-27T04:03:10.598Z,68.25
2023-04-27T04:05:37.204Z,68.33
2023-04-27T04:08:03.925Z,68.33
2023-04-27T04:10:30.279Z,67.95
2023-04-27T04:12:56.632Z,68.21
2023-04-27T04:15:23.158Z,68.44
2023-04-27T04:17:49.577Z,69.21
2023-04-27T04:20:16.183Z,69.35
2023-04-27T04:22:43.705Z,69.43
2023-04-27T04:25:11.699Z,68.93
2023-04-27T04:27:38.094Z,68.94
2023-04-27T04:30:06.417Z,69.13
2023-04-27T04:32:33.787Z,69.08
2023-04-27T04:35:01.493Z,69.66
2023-04-27T04:37:28.224Z,69.44
2023-04-27T04:39:54.680Z,69.30
2023-04-27T04:42:21.089Z,69.39
2023-04-27T04:44:47.430Z,69.26
2023-04-27T04:47:13.814Z,69.37
2023-04-27T04:49:40.193Z,69.90
2023-04-27T04:52:06.572Z,70.29
2023-04-27T04:54:33.035Z,70.76
2023-04-27T04:57:00.874Z,70.59
2023-04-27T04:59:27.214Z,70.20
2023-04-27T05:01:56.727Z,70.53
2023-04-27T05:04:23.311Z,70.33
2023-04-27T05:06:49.768Z,70.46
2023-04-27T05:09:16.184Z,70.31
2023-04-27T05:11:42.537Z,70.58
2023-04-27T05:14:08.945Z,70.77
2023-04-27T05:16:35.499Z,70.38
2023-04-27T05:19:01.960Z,70.74
2023-04-27T05:21:28.423Z,70.86
2023-04-27T05:23:54.952Z,70.90
2023-04-27T05:26:21.615Z,70.58
2023-04-27T05:28:49.304Z,70.07
2023-04-27T05:31:16.058Z,69.96
2023-04-27T05:33:42.538Z,70.09
2023-04-27T05:36:09.387Z,70.24
2023-04-27T05:38:39.926Z,69.92
2023-04-27T05:41:06.499Z,70.00
2023-04-27T05:43:34.882Z,69.91
2023-04-27T05:46:01.842Z,69.53
2023-04-27T05:48:28.251Z,69.82
2023-04-27T05:51:01.949Z,69.88
2023-04-27T05:53:29.064Z,69.61
2023-04-27T05:55:56.703Z,69.65
2023-04-27T05:58:23.210Z,69.25
2023-04-27T06:00:50.421Z,68.84
2023-04-27T06:03:16.999Z,68.95
2023-04-27T06:05:43.597Z,68.59
2023-04-27T06:08:12.071Z,68.58
2023-04-27T06:10:41.545Z,68.16
2023-04-27T06:13:07.954Z,67.69
2023-04-27T06:15:34.463Z,67.40
2023-04-27T06:18:01.013Z,67.02
2023-04-27T06:20:27.461Z,66.80
2023-04-27T06:22:53.864Z,67.14
2023-04-27T06:25:20.356Z,66.57
2023-04-27T06:27:47.361Z,66.72
2023-04-27T06:30:13.945Z,65.96
2023-04-27T06:32:40.659Z,65.97
2023-04-27T06:35:07.290Z,65.38
2023-04-27T06:37:33.735Z,64.98
2023-04-27T06:40:00.124Z,65.00
2023-04-27T06:42:27.273Z,65.04
2023-04-27T06:44:55.894Z,64.04
2023-04-27T06:47:22.802Z,63.66
2023-04-27T06:49:49.735Z,63.59
2023-04-27T06:52:16.448Z,63.11
2023-04-27T06:54:42.960Z,62.59
2023-04-27T06:57:09.403Z,62.23
2023-04-27T06:59:36.101Z,61.89
2023-04-27T07:02:02.535Z,61.70
2023-04-27T07:04:30.166Z,61.35
2023-04-27T07:06:56.814Z,61.42
2023-04-27T07:09:27.551Z,61.02
2023-04-27T07:11:55.162Z,60.31
2023-04-27T07:14:22.303Z,59.48
2023-04-27T07:16:48.699Z,59.42
2023-04-27T07:19:15.243Z,59.02
2023-04-27T07:21:41.953Z,59.03
2023-04-27T07:24:08.518Z,58.67
2023-04-27T07:26:34.956Z,58.91
2023-04-27T07:29:04.225Z,58.43
2023-04-27T07:31:34.884Z,58.12
2023-04-27T07:34:01.263Z,57.66
2023-04-27T07:36:27.675Z,58.30
2023-04-27T07:38:54.040Z,57.38
2023-04-27T07:41:21.815Z,57.58
2023-04-27T07:43:48.261Z,55.85
2023-04-27T07:46:14.703Z,55.20
2023-04-27T07:48:41.219Z,55.17
2023-04-27T07:51:07.614Z,55.64
2023-04-27T07:53:35.489Z,54.53
2023-04-27T07:56:01.984Z,54.51
2023-04-27T07:58:28.316Z,54.60
2023-04-27T08:00:54.610Z,54.09
2023-04-27T08:03:22.854Z,54.63
2023-04-27T08:05:49.844Z,54.29
2023-04-27T08:08:17.010Z,52.32
2023-04-27T08:10:43.405Z,52.12
2023-04-27T08:13:10.012Z,51.62
2023-04-27T08:15:37.245Z,51.72
2023-04-27T08:18:03.905Z,49.55
2023-04-27T08:20:30.384Z,50.38
2023-04-27T08:22:56.785Z,48.51
2023-04-27T08:25:23.398Z,48.31
2023-04-27T08:27:49.759Z,48.31
2023-04-27T08:30:16.646Z,47.66
2023-04-27T08:32:43.195Z,46.87
2023-04-27T08:35:09.678Z,46.41
2023-04-27T08:37:36.066Z,46.60
2023-04-27T08:40:06.115Z,45.26
2023-04-27T08:42:32.808Z,46.11
2023-04-27T08:44:59.348Z,46.80
2023-04-27T08:47:38.706Z,46.48
2023-04-27T08:50:08.239Z,46.02
2023-04-27T08:52:34.857Z,46.02
2023-04-27T08:55:01.211Z,46.11
2023-04-27T08:57:27.522Z,45.43
2023-04-27T09:00:01.244Z,45.58
2023-04-27T09:02:29.591Z,46.10
2023-04-27T09:04:56.937Z,45.54
2023-04-27T09:07:23.585Z,44.75
2023-04-27T09:09:50.347Z,44.70
2023-04-27T09:12:21.817Z,45.46
2023-04-27T09:14:58.033Z,45.13
2023-04-27T09:17:27.715Z,45.31
2023-04-27T09:20:10.804Z,45.34
2023-04-27T09:22:47.610Z,45.02
2023-04-27T09:25:27.191Z,45.65
2023-04-27T09:27:54.186Z,45.59
2023-04-27T09:30:20.945Z,45.05
2023-04-27T09:32:59.390Z,44.27
2023-04-27T09:35:29.291Z,44.82
2023-04-27T09:37:56.128Z,44.63
2023-04-27T09:40:26.627Z,44.61
2023-04-27T09:42:54.864Z,44.40
2023-04-27T09:45:21.428Z,44.49
2023-04-27T09:47:48.221Z,45.13
2023-04-27T09:50:15.449Z,45.33
2023-04-27T09:52:42.657Z,44.95
2023-04-27T09:55:13.734Z,44.74
2023-04-27T09:58:09.452Z,44.56
2023-04-27T10:00:51.688Z,44.43
2023-04-27T10:03:33.424Z,44.33
2023-04-27T10:06:21.547Z,44.28
2023-04-27T10:08:51.784Z,43.79
2023-04-27T10:11:19.253Z,44.04
2023-04-27T10:13:54.845Z,45.18
2023-04-27T10:16:21.812Z,44.76
2023-04-27T10:18:55.736Z,44.27
2023-04-27T10:21:23.720Z,43.39
2023-04-27T10:23:51.829Z,43.67
2023-04-27T10:26:25.535Z,43.87
2023-04-27T10:29:07.928Z,43.61
2023-04-27T10:31:35.198Z,43.38
2023-04-27T10:34:15.855Z,42.94
2023-04-27T10:36:42.566Z,42.76
2023-04-27T10:39:25.575Z,42.42
2023-04-27T10:41:59.337Z,42.28
2023-04-27T10:44:29.098Z,42.28
2023-04-27T10:46:57.300Z,42.19
2023-04-27T10:49:23.793Z,41.70
2023-04-27T10:51:51.320Z,42.09
2023-04-27T10:54:18.644Z,42.13
2023-04-27T10:56:45.389Z,42.16
2023-04-27T10:59:12.117Z,42.47
2023-04-27T11:01:40.218Z,43.13
2023-04-27T11:04:06.756Z,43.14
2023-04-27T11:06:42.908Z,42.11
2023-04-27T11:09:10.868Z,42.60
2023-04-27T11:11:37.363Z,41.80
2023-04-27T11:14:03.858Z,41.77
2023-04-27T11:16:32.933Z,41.55
2023-04-27T11:19:05.081Z,42.22
2023-04-27T11:21:32.346Z,42.22
2023-04-27T11:24:07.530Z,42.09
2023-04-27T11:26:34.020Z,41.72
2023-04-27T11:29:05.130Z,41.41
2023-04-27T11:31:49.374Z,41.14
2023-04-27T11:34:22.782Z,40.85
2023-04-27T11:37:17.976Z,41.90
2023-04-27T11:39:46.236Z,41.85
2023-04-27T11:42:23.407Z,41.27
2023-04-27T11:44:54.405Z,41.27
2023-04-27T11:47:22.720Z,40.72
2023-04-27T11:49:50.519Z,40.76
2023-04-27T11:52:17.595Z,41.25
2023-04-27T11:54:52.943Z,40.96
2023-04-27T11:57:29.282Z,40.36
2023-04-27T11:59:57.662Z,40.57
2023-04-27T12:02:24.115Z,40.25
2023-04-27T12:04:51.614Z,40.43
2023-04-27T12:07:19.262Z,40.04
2023-04-27T12:09:46.006Z,39.95
2023-04-27T12:12:13.949Z,39.12
2023-04-27T12:14:41.330Z,38.81
2023-04-27T12:17:07.794Z,39.09
2023-04-27T12:19:34.341Z,39.21
2023-04-27T12:22:00.728Z,39.59
2023-04-27T12:24:27.046Z,39.53
2023-04-27T12:26:53.455Z,39.43
2023-04-27T12:29:20.539Z,39.08
2023-04-27T12:31:46.970Z,38.78
2023-04-27T12:34:13.693Z,39.17
2023-04-27T12:36:40.391Z,39.24
2023-04-27T12:39:20.655Z,39.62
2023-04-27T12:41:48.317Z,39.34
2023-04-27T12:44:15.967Z,38.42
2023-04-27T12:46:43.892Z,38.10
2023-04-27T12:49:11.107Z,38.32
2023-04-27T12:51:37.640Z,37.70
2023-04-27T12:54:05.137Z,38.07
2023-04-27T12:56:31.563Z,38.36
2023-04-27T12:58:58.256Z,38.20
2023-04-27T13:01:27.563Z,37.81
2023-04-27T13:03:56.029Z,37.86
2023-04-27T13:06:22.823Z,37.79
2023-04-27T13:08:49.905Z,37.86
2023-04-27T13:11:17.170Z,37.31
2023-04-27T13:13:48.021Z,37.05
2023-04-27T13:16:14.521Z,37.51
2023-04-27T13:18:41.285Z,37.55
2023-04-27T13:21:07.970Z,37.86
2023-04-27T13:23:34.579Z,37.20
2023-04-27T13:26:01.372Z,36.73
2023-04-27T13:28:27.775Z,36.62
2023-04-27T13:30:54.249Z,36.63
2023-04-27T13:33:23.304Z,36.72
2023-04-27T13:35:52.016Z,36.54
2023-04-27T13:38:18.551Z,35.93
2023-04-27T13:40:44.968Z,36.37
2023-04-27T13:43:11.362Z,35.63
2023-04-27T13:45:39.517Z,35.51
2023-04-27T13:48:06.464Z,35.97
2023-04-27T13:50:33.128Z,35.75
2023-04-27T13:53:01.730Z,34.79
2023-04-27T13:55:28.195Z,34.76
2023-04-27T13:57:54.643Z,34.53
2023-04-27T14:00:21.484Z,34.10
2023-04-27T14:02:47.974Z,34.23
2023-04-27T14:05:14.662Z,33.46
2023-04-27T14:07:41.042Z,33.92
2023-04-27T14:10:08.033Z,33.80
2023-04-27T14:12:35.314Z,33.22
2023-04-27T14:15:01.754Z,33.20
2023-04-27T14:17:28.123Z,33.10
2023-04-27T14:19:54.505Z,33.16
2023-04-27T14:22:20.942Z,33.37
2023-04-27T14:24:47.226Z,33.47
2023-04-27T14:27:15.169Z,33.12
2023-04-27T14:29:41.513Z,33.82
2023-04-27T14:32:08.414Z,33.68
2023-04-27T14:34:35.081Z,33.92
2023-04-27T14:37:01.472Z,33.94
2023-04-27T14:39:28.154Z,34.25
2023-04-27T14:41:54.552Z,33.87
2023-04-27T14:44:21.012Z,33.73
2023-04-27T14:46:47.511Z,33.67
2023-04-27T14:49:14.107Z,33.86
2023-04-27T14:51:43.428Z,33.47
2023-04-27T14:54:10.070Z,33.06
2023-04-27T14:56:36.707Z,33.39
2023-04-27T14:59:03.306Z,33.94
2023-04-27T15:01:29.813Z,33.74
2023-04-27T15:03:58.078Z,33.91
2023-04-27T15:06:28.239Z,33.72
2023-04-27T15:08:55.298Z,33.43
2023-04-27T15:11:22.065Z,33.27
2023-04-27T15:13:48.645Z,33.46
2023-04-27T15:16:15.212Z,33.65
2023-04-27T15:18:42.133Z,33.71
2023-04-27T15:21:08.950Z,33.77
2023-04-27T15:23:37.267Z,33.58
2023-04-27T15:26:04.173Z,33.51
2023-04-27T15:28:30.599Z,34.09
2023-04-27T15:30:57.081Z,34.73
2023-04-27T15:33:23.579Z,34.99
2023-04-27T15:35:50.185Z,34.86
2023-04-27T15:38:17.872Z,35.59
2023-04-27T15:40:44.230Z,35.62
2023-04-27T15:43:10.680Z,35.25
2023-04-27T15:45:37.168Z,35.86
2023-04-27T15:48:03.825Z,36.06
2023-04-27T15:50:30.429Z,36.07
2023-04-27T15:52:56.884Z,36.16
2023-04-27T15:55:23.408Z,36.34
2023-04-27T15:57:50.480Z,36.18
2023-04-27T16:00:18.903Z,35.94
2023-04-27T16:02:46.797Z,36.30
2023-04-27T16:05:13.698Z,36.69
2023-04-27T16:07:42.644Z,36.73
2023-04-27T16:10:09.872Z,36.65
2023-04-27T16:12:36.599Z,36.93
2023-04-27T16:15:03.717Z,37.27
2023-04-27T16:17:37.462Z,37.34
2023-04-27T16:20:08.456Z,37.04
2023-04-27T16:22:36.144Z,37.03
2023-04-27T16:25:03.944Z,36.81
2023-04-27T16:27:30.845Z,37.39
2023-04-27T16:29:57.300Z,37.78
2023-04-27T16:32:23.846Z,37.99
2023-04-27T16:34:50.512Z,37.54
2023-04-27T16:37:16.954Z,37.84
2023-04-27T16:39:43.338Z,37.75
2023-04-27T16:42:10.137Z,38.45
2023-04-27T16:44:38.336Z,38.55
2023-04-27T16:47:04.636Z,38.46
2023-04-27T16:49:31.035Z,38.83
2023-04-27T16:51:57.405Z,39.14
2023-04-27T16:54:23.745Z,39.36
2023-04-27T16:56:50.273Z,39.66
2023-04-27T16:59:17.068Z,39.53
2023-04-27T17:01:43.674Z,39.63
2023-04-27T17:04:10.749Z,40.04
2023-04-27T17:06:37.170Z,40.35
2023-04-27T17:09:03.641Z,39.97
2023-04-27T17:11:30.048Z,40.29
2023-04-27T17:13:56.636Z,40.43
2023-04-27T17:16:23.508Z,40.15
2023-04-27T17:18:50.009Z,40.66
2023-04-27T17:21:17.291Z,40.80
2023-04-27T17:23:46.519Z,40.81
2023-04-27T17:28:42.036Z,40.95
2023-04-27T17:31:08.562Z,41.04
2023-04-27T17:33:35.250Z,41.27
2023-04-27T17:36:01.613Z,41.11
2023-04-27T17:38:28.099Z,41.17
2023-04-27T17:40:54.493Z,41.19
2023-04-27T17:43:20.885Z,41.72
2023-04-27T17:45:48.219Z,41.71
2023-04-27T17:48:14.736Z,41.81
2023-04-27T17:50:41.270Z,41.85
2023-04-27T17:53:07.669Z,41.61
2023-04-27T17:55:34.102Z,42.15
2023-04-27T17:58:00.581Z,41.67
2023-04-27T18:00:27.091Z,41.51
2023-04-27T18:02:53.688Z,41.53
2023-04-27T18:05:20.244Z,41.65
2023-04-27T18:07:46.635Z,41.70
2023-04-27T18:10:13.524Z,41.76
2023-04-27T18:12:39.822Z,41.53
2023-04-27T18:15:09.469Z,41.55
2023-04-27T18:17:36.573Z,41.88
2023-04-27T18:20:09.370Z,41.73
2023-04-27T18:22:37.802Z,42.05
2023-04-27T18:25:04.616Z,41.74
2023-04-27T18:27:31.826Z,42.18
2023-04-27T18:29:58.425Z,42.21
2023-04-27T18:32:24.871Z,42.63
2023-04-27T18:34:51.215Z,42.66
2023-04-27T18:37:17.739Z,42.62
2023-04-27T18:39:44.160Z,42.54
2023-04-27T18:42:10.475Z,42.61
2023-04-27T18:44:37.105Z,42.48
2023-04-27T18:47:03.503Z,42.90
2023-04-27T18:49:29.880Z,43.15
2023-04-27T18:51:56.371Z,43.81
2023-04-27T18:54:22.678Z,44.11
2023-04-27T18:56:52.864Z,44.09
2023-04-27T18:59:20.137Z,44.61
2023-04-27T19:01:46.827Z,44.56
2023-04-27T19:04:14.453Z,44.40
2023-04-27T19:06:41.025Z,44.18
2023-04-27T19:09:09.070Z,44.27
2023-04-27T19:11:35.941Z,44.51
2023-04-27T19:14:02.483Z,44.43
2023-04-27T19:16:29.011Z,44.48
2023-04-27T19:18:55.473Z,44.64
2023-04-27T19:21:21.938Z,44.53
2023-04-27T19:23:48.355Z,44.59
2023-04-27T19:26:14.929Z,44.76
2023-04-27T19:28:41.417Z,44.61
2023-04-27T19:31:07.890Z,44.64
2023-04-27T19:33:34.454Z,44.67
2023-04-27T19:36:00.839Z,44.58
2023-04-27T19:38:27.341Z,44.86
2023-04-27T19:40:53.688Z,44.90
2023-04-27T19:43:20.208Z,45.34
2023-04-27T19:45:48.711Z,45.27
2023-04-27T19:48:15.215Z,45.52
2023-04-27T19:50:41.756Z,45.50
2023-04-27T19:53:08.206Z,45.67
2023-04-27T19:55:34.879Z,45.71
2023-04-27T19:58:01.463Z,45.67
2023-04-27T20:00:27.920Z,45.96
2023-04-27T20:02:54.473Z,46.43
2023-04-27T20:05:21.412Z,46.53
2023-04-27T20:07:50.002Z,46.15
2023-04-27T20:10:16.706Z,46.19
2023-04-27T20:12:55.478Z,46.24
2023-04-27T20:15:23.702Z,46.38
2023-04-27T20:17:50.171Z,46.51
2023-04-27T20:20:16.676Z,46.60
2023-04-27T20:22:43.112Z,46.53
2023-04-27T20:25:09.944Z,46.68
2023-04-27T20:27:36.563Z,46.86
2023-04-27T20:30:04.176Z,46.96
2023-04-27T20:32:30.592Z,46.75
2023-04-27T20:34:56.958Z,47.16
2023-04-27T20:37:24.761Z,47.39
2023-04-27T20:39:54.363Z,47.53
2023-04-27T20:42:20.832Z,47.18
2023-04-27T20:44:48.331Z,47.04
2023-04-27T20:47:15.297Z,46.89
2023-04-27T20:49:41.898Z,47.16
2023-04-27T20:52:08.260Z,47.57
2023-04-27T20:54:34.673Z,47.55
2023-04-27T20:57:02.083Z,47.33
2023-04-27T20:59:28.665Z,47.49
2023-04-27T21:01:55.117Z,47.83
2023-04-27T21:04:21.602Z,47.86
2023-04-27T21:06:48.104Z,47.91
2023-04-27T21:09:14.514Z,47.87
2023-04-27T21:11:40.880Z,47.70
2023-04-27T21:14:07.324Z,47.85
2023-04-27T21:16:33.778Z,48.12
2023-04-27T21:19:00.215Z,48.07
2023-04-27T21:21:27.081Z,48.24
2023-04-27T21:24:04.131Z,48.28
2023-04-27T21:26:34.105Z,48.25
2023-04-27T21:29:01.095Z,48.17
2023-04-27T21:31:27.525Z,48.31
2023-04-27T21:33:54.060Z,48.26
2023-04-27T21:36:20.497Z,48.21
2023-04-27T21:38:47.189Z,48.42
2023-04-27T21:41:13.888Z,48.94
2023-04-27T21:43:42.016Z,49.08
2023-04-27T21:46:09.093Z,49.01
2023-04-27T21:48:35.888Z,49.42
2023-04-27T21:51:02.734Z,49.32
2023-04-27T21:53:32.127Z,48.91
2023-04-27T21:55:58.699Z,49.24
2023-04-27T21:58:25.689Z,49.37
2023-04-27T22:00:52.120Z,49.37
2023-04-27T22:03:18.632Z,49.32
2023-04-27T22:05:45.368Z,49.39
2023-04-27T22:08:12.124Z,49.49
2023-04-27T22:10:38.781Z,49.53
2023-04-27T22:13:17.836Z,49.28
2023-04-27T22:15:45.063Z,49.99
2023-04-27T22:18:11.438Z,49.81
2023-04-27T22:20:38.328Z,50.12
2023-04-27T22:23:04.828Z,49.83
2023-04-27T22:25:31.506Z,50.28
2023-04-27T22:27:57.862Z,50.24
2023-04-27T22:30:24.444Z,50.68
2023-04-27T22:32:51.343Z,50.52
2023-04-27T22:35:26.391Z,50.65
2023-04-27T22:37:58.934Z,51.04
2023-04-27T22:40:25.584Z,51.30
2023-04-27T22:42:52.716Z,51.06
2023-04-27T22:45:19.228Z,51.17
2023-04-27T22:47:46.034Z,51.11
2023-04-27T22:50:13.410Z,51.07
2023-04-27T22:52:42.282Z,51.42
2023-04-27T22:55:09.693Z,51.20
2023-04-27T22:57:36.074Z,51.48
2023-04-27T23:00:05.186Z,51.14
2023-04-27T23:02:31.997Z,51.43
2023-04-27T23:04:58.831Z,51.29
2023-04-27T23:07:25.347Z,51.64
2023-04-27T23:09:52.781Z,52.01
2023-04-27T23:12:20.654Z,52.03
2023-04-27T23:14:47.177Z,51.97
2023-04-27T23:17:15.498Z,51.81
2023-04-27T23:19:41.961Z,52.24
2023-04-27T23:22:08.381Z,52.50
2023-04-27T23:24:34.828Z,52.18
2023-04-27T23:27:01.264Z,52.31
2023-04-27T23:29:27.870Z,52.53
2023-04-27T23:31:54.258Z,52.50
2023-04-27T23:34:20.582Z,52.76
2023-04-27T23:36:47.034Z,52.57
2023-04-27T23:39:13.419Z,52.78
2023-04-27T23:41:39.719Z,52.98
2023-04-27T23:44:06.226Z,52.98
2023-04-27T23:46:32.672Z,53.50
2023-04-27T23:48:59.069Z,53.39
2023-04-27T23:51:25.553Z,53.74
2023-04-27T23:53:51.874Z,54.62
2023-04-27T23:56:19.216Z,54.54
2023-04-27T23:58:45.933Z,54.06
